John F Kennedy International Airport
KJFK : now visible

Airfield :











YOU CAN JOIN US ON...

 
LOGIN :

Register | Disclaimer

   EN    FR    IT 

 









Legend :    VFR   Marginal VFR   IFR   Intensive IFR   Very Intensive IFR
Visi :
Ceiling :
>= 8 km
>= 3000ft
5 to 8 km
1000 to 3000 ft
1500m to 5 km
500 to 1000 ft
800 to 1500m
200 to 500 ft
< 800m
< 200 ft
Symbols :   Thunderstorms  Fog  Heavy snow  Heavy precipitations  Wind > 20 kt






- Airport Elevation : 13 ft
- IATA code : JFK


KJFK - John F Kennedy International

CURRENT METAR :
  • 230051Z 30014G23KT 10SM FEW024 FEW250 06/M04 A2992 RMK AO2 PK WND 29032/0015 SLP132 T00611039 $

EXPIRED METARs :
  • 222351Z 29026G35KT 10SM FEW024 SCT250 07/M04 A2988 RMK AO2 PK WND 29036/2340 SLP118 60004 T00721039 10106 20072 51044 $
  • 222251Z 30021G28KT 10SM FEW024 FEW040 SCT250 08/M02 A2983 RMK AO2 PK WND 32029/2238 SLP102 T00781022 $

TAF KJFK
Valid from the 23 at 00:00 until the 24 at 06:00 UTC


222334Z 2300/2406 31020G30KT P6SM FEW045 FEW100 SCT250
FM230500 30013G21KT P6SM SKC
FM230900 30011KT P6SM SKC
FM231400 27009KT P6SM SKC
FM231800 25008KT P6SM SCT250
FM232100 22008KT P6SM SCT150 BKN250
FM240400 VRB05KT 6SM -SHRA SCT010 BKN035 OVC050



MET'MAP, your aeronautical weather chart ! - Copyright ORBIFLY December 2007 - Disclaimer

ORBIFLY MET'MAP TEAM :

Programming & Development : Alexandra Zaïnal
Concept & Development : Baudouin d'Aumeries
Co-Development & Prog : Marc-Olivier Méhu
Technical & hardware support : Manuel Goepfert

Contact : metmap@orbifly.com




SOURCES & CREDITS :

   NOAA       Earth
Advisory